sensor_id;sensor_type;location;lat;lon;timestamp;P1;durP1;ratioP1;P2;durP2;ratioP2
8849;SDS011;5638;50.860;4.698;2022-10-31T00:01:11;9.63;;;5.30;;
8849;SDS011;5638;50.860;4.698;2022-10-31T00:03:41;12.17;;;6.50;;
8849;SDS011;5638;50.860;4.698;2022-10-31T00:06:06;11.63;;;6.10;;
8849;SDS011;5638;50.860;4.698;2022-10-31T00:08:32;8.43;;;5.50;;
8849;SDS011;5638;50.860;4.698;2022-10-31T00:10:59;7.77;;;5.67;;
8849;SDS011;5638;50.860;4.698;2022-10-31T00:13:25;10.63;;;6.20;;
8849;SDS011;5638;50.860;4.698;2022-10-31T00:15:50;13.07;;;5.90;;
8849;SDS011;5638;50.860;4.698;2022-10-31T00:18:16;12.17;;;6.00;;
8849;SDS011;5638;50.860;4.698;2022-10-31T00:20:42;9.47;;;5.70;;
8849;SDS011;5638;50.860;4.698;2022-10-31T00:23:08;8.03;;;5.70;;
8849;SDS011;5638;50.860;4.698;2022-10-31T00:25:36;10.70;;;5.93;;
8849;SDS011;5638;50.860;4.698;2022-10-31T00:28:04;8.20;;;5.60;;
8849;SDS011;5638;50.860;4.698;2022-10-31T00:30:32;8.10;;;5.67;;
8849;SDS011;5638;50.860;4.698;2022-10-31T00:32:58;11.03;;;6.10;;
8849;SDS011;5638;50.860;4.698;2022-10-31T00:35:24;9.77;;;5.80;;
8849;SDS011;5638;50.860;4.698;2022-10-31T00:37:51;9.37;;;5.80;;
8849;SDS011;5638;50.860;4.698;2022-10-31T00:40:18;10.47;;;6.30;;
8849;SDS011;5638;50.860;4.698;2022-10-31T00:42:44;13.30;;;6.77;;
8849;SDS011;5638;50.860;4.698;2022-10-31T00:45:10;12.17;;;6.13;;
8849;SDS011;5638;50.860;4.698;2022-10-31T00:47:36;10.17;;;6.80;;
8849;SDS011;5638;50.860;4.698;2022-10-31T00:50:03;10.07;;;5.97;;
8849;SDS011;5638;50.860;4.698;2022-10-31T00:52:31;8.90;;;5.77;;
8849;SDS011;5638;50.860;4.698;2022-10-31T00:54:57;9.73;;;6.10;;
8849;SDS011;5638;50.860;4.698;2022-10-31T00:57:22;10.10;;;6.37;;
8849;SDS011;5638;50.860;4.698;2022-10-31T00:59:48;8.97;;;5.87;;
8849;SDS011;5638;50.860;4.698;2022-10-31T01:02:14;11.13;;;6.23;;
8849;SDS011;5638;50.860;4.698;2022-10-31T01:04:40;9.00;;;5.83;;
8849;SDS011;5638;50.860;4.698;2022-10-31T01:07:06;10.10;;;5.80;;
8849;SDS011;5638;50.860;4.698;2022-10-31T01:09:32;10.40;;;5.90;;
8849;SDS011;5638;50.860;4.698;2022-10-31T01:11:58;12.03;;;6.10;;
8849;SDS011;5638;50.860;4.698;2022-10-31T01:14:23;9.03;;;5.60;;
8849;SDS011;5638;50.860;4.698;2022-10-31T01:16:49;13.57;;;6.10;;
8849;SDS011;5638;50.860;4.698;2022-10-31T01:19:15;7.87;;;5.90;;
8849;SDS011;5638;50.860;4.698;2022-10-31T01:21:41;10.60;;;5.97;;
8849;SDS011;5638;50.860;4.698;2022-10-31T01:24:07;10.63;;;5.97;;
8849;SDS011;5638;50.860;4.698;2022-10-31T01:26:33;11.20;;;6.67;;
8849;SDS011;5638;50.860;4.698;2022-10-31T01:29:00;9.30;;;6.00;;
8849;SDS011;5638;50.860;4.698;2022-10-31T01:31:36;9.63;;;6.23;;
8849;SDS011;5638;50.860;4.698;2022-10-31T01:34:04;10.43;;;6.40;;
8849;SDS011;5638;50.860;4.698;2022-10-31T01:36:35;7.77;;;5.63;;
8849;SDS011;5638;50.860;4.698;2022-10-31T01:39:08;12.10;;;6.43;;
8849;SDS011;5638;50.860;4.698;2022-10-31T01:41:39;11.63;;;6.13;;
8849;SDS011;5638;50.860;4.698;2022-10-31T01:52:04;9.90;;;5.70;;
8849;SDS011;5638;50.860;4.698;2022-10-31T01:54:39;10.70;;;6.10;;
8849;SDS011;5638;50.860;4.698;2022-10-31T01:57:12;14.90;;;6.40;;
8849;SDS011;5638;50.860;4.698;2022-10-31T01:59:42;9.97;;;6.70;;
8849;SDS011;5638;50.860;4.698;2022-10-31T02:02:15;12.13;;;6.50;;
8849;SDS011;5638;50.860;4.698;2022-10-31T02:04:43;9.27;;;6.20;;
8849;SDS011;5638;50.860;4.698;2022-10-31T02:07:14;12.70;;;6.33;;
8849;SDS011;5638;50.860;4.698;2022-10-31T02:09:48;13.43;;;5.73;;
8849;SDS011;5638;50.860;4.698;2022-10-31T02:12:18;9.40;;;5.70;;
8849;SDS011;5638;50.860;4.698;2022-10-31T02:14:45;8.97;;;5.80;;
8849;SDS011;5638;50.860;4.698;2022-10-31T02:17:12;13.53;;;6.33;;
8849;SDS011;5638;50.860;4.698;2022-10-31T02:23:20;8.73;;;6.20;;
8849;SDS011;5638;50.860;4.698;2022-10-31T02:28:46;11.03;;;6.00;;
8849;SDS011;5638;50.860;4.698;2022-10-31T02:41:15;9.97;;;5.80;;
8849;SDS011;5638;50.860;4.698;2022-10-31T02:49:04;9.07;;;6.30;;
8849;SDS011;5638;50.860;4.698;2022-10-31T02:52:26;11.07;;;6.50;;
8849;SDS011;5638;50.860;4.698;2022-10-31T02:54:54;9.03;;;6.27;;
8849;SDS011;5638;50.860;4.698;2022-10-31T02:57:21;11.93;;;6.10;;
8849;SDS011;5638;50.860;4.698;2022-10-31T03:00:03;9.93;;;6.47;;
8849;SDS011;5638;50.860;4.698;2022-10-31T03:02:43;8.07;;;5.70;;
8849;SDS011;5638;50.860;4.698;2022-10-31T03:05:40;7.43;;;5.77;;
8849;SDS011;5638;50.860;4.698;2022-10-31T03:08:21;8.77;;;5.87;;
8849;SDS011;5638;50.860;4.698;2022-10-31T03:11:11;7.70;;;5.53;;
8849;SDS011;5638;50.860;4.698;2022-10-31T03:13:57;9.17;;;5.80;;
8849;SDS011;5638;50.860;4.698;2022-10-31T03:16:51;8.97;;;5.30;;
8849;SDS011;5638;50.860;4.698;2022-10-31T03:19:29;9.70;;;5.43;;
8849;SDS011;5638;50.860;4.698;2022-10-31T03:22:10;9.00;;;5.33;;
8849;SDS011;5638;50.860;4.698;2022-10-31T03:24:41;8.60;;;4.87;;
8849;SDS011;5638;50.860;4.698;2022-10-31T03:27:09;6.93;;;4.37;;
8849;SDS011;5638;50.860;4.698;2022-10-31T03:29:39;6.67;;;4.30;;
8849;SDS011;5638;50.860;4.698;2022-10-31T03:32:13;6.67;;;4.40;;
8849;SDS011;5638;50.860;4.698;2022-10-31T03:34:47;6.00;;;4.13;;
8849;SDS011;5638;50.860;4.698;2022-10-31T03:37:16;7.47;;;4.10;;
8849;SDS011;5638;50.860;4.698;2022-10-31T03:39:46;7.13;;;3.97;;
8849;SDS011;5638;50.860;4.698;2022-10-31T03:42:15;6.83;;;3.70;;
8849;SDS011;5638;50.860;4.698;2022-10-31T03:44:58;6.80;;;4.30;;
8849;SDS011;5638;50.860;4.698;2022-10-31T03:47:28;6.83;;;4.17;;
8849;SDS011;5638;50.860;4.698;2022-10-31T03:49:55;6.17;;;3.70;;
8849;SDS011;5638;50.860;4.698;2022-10-31T03:55:00;7.73;;;4.70;;
8849;SDS011;5638;50.860;4.698;2022-10-31T04:00:31;4.90;;;3.63;;
8849;SDS011;5638;50.860;4.698;2022-10-31T04:03:03;5.80;;;3.90;;
8849;SDS011;5638;50.860;4.698;2022-10-31T04:05:37;5.77;;;4.20;;
8849;SDS011;5638;50.860;4.698;2022-10-31T04:08:07;5.67;;;4.00;;
8849;SDS011;5638;50.860;4.698;2022-10-31T04:10:39;8.10;;;3.97;;
8849;SDS011;5638;50.860;4.698;2022-10-31T04:13:13;5.13;;;3.90;;
8849;SDS011;5638;50.860;4.698;2022-10-31T04:15:47;6.10;;;3.87;;
8849;SDS011;5638;50.860;4.698;2022-10-31T04:18:16;5.77;;;4.20;;
8849;SDS011;5638;50.860;4.698;2022-10-31T04:20:42;5.63;;;4.53;;
8849;SDS011;5638;50.860;4.698;2022-10-31T04:23:29;6.90;;;4.20;;
8849;SDS011;5638;50.860;4.698;2022-10-31T04:25:54;5.77;;;4.43;;
8849;SDS011;5638;50.860;4.698;2022-10-31T04:28:20;6.50;;;4.40;;
8849;SDS011;5638;50.860;4.698;2022-10-31T04:30:46;7.17;;;4.97;;
8849;SDS011;5638;50.860;4.698;2022-10-31T04:33:12;7.33;;;4.73;;
8849;SDS011;5638;50.860;4.698;2022-10-31T04:35:39;11.63;;;4.53;;
8849;SDS011;5638;50.860;4.698;2022-10-31T04:38:05;7.90;;;4.57;;
8849;SDS011;5638;50.860;4.698;2022-10-31T04:40:31;8.30;;;4.83;;
8849;SDS011;5638;50.860;4.698;2022-10-31T04:42:57;5.07;;;4.03;;
8849;SDS011;5638;50.860;4.698;2022-10-31T04:45:23;6.03;;;4.27;;
8849;SDS011;5638;50.860;4.698;2022-10-31T04:47:48;6.97;;;4.90;;
8849;SDS011;5638;50.860;4.698;2022-10-31T04:50:14;7.07;;;4.67;;
8849;SDS011;5638;50.860;4.698;2022-10-31T04:52:41;7.40;;;4.70;;
8849;SDS011;5638;50.860;4.698;2022-10-31T04:55:08;9.33;;;4.93;;
8849;SDS011;5638;50.860;4.698;2022-10-31T04:57:42;7.30;;;4.67;;
8849;SDS011;5638;50.860;4.698;2022-10-31T05:00:10;5.23;;;4.20;;
8849;SDS011;5638;50.860;4.698;2022-10-31T05:02:48;5.93;;;4.30;;
8849;SDS011;5638;50.860;4.698;2022-10-31T05:05:21;6.47;;;4.00;;
8849;SDS011;5638;50.860;4.698;2022-10-31T05:07:49;8.73;;;4.60;;
8849;SDS011;5638;50.860;4.698;2022-10-31T05:10:17;6.23;;;3.87;;
8849;SDS011;5638;50.860;4.698;2022-10-31T05:12:47;6.93;;;3.80;;
8849;SDS011;5638;50.860;4.698;2022-10-31T05:15:22;6.20;;;3.97;;
8849;SDS011;5638;50.860;4.698;2022-10-31T05:17:51;11.87;;;4.67;;
8849;SDS011;5638;50.860;4.698;2022-10-31T05:20:18;9.50;;;4.47;;
8849;SDS011;5638;50.860;4.698;2022-10-31T05:22:48;5.40;;;3.63;;
8849;SDS011;5638;50.860;4.698;2022-10-31T05:25:18;5.07;;;3.70;;
8849;SDS011;5638;50.860;4.698;2022-10-31T05:27:46;7.93;;;4.50;;
8849;SDS011;5638;50.860;4.698;2022-10-31T05:30:16;7.97;;;4.27;;
8849;SDS011;5638;50.860;4.698;2022-10-31T05:32:46;7.53;;;3.77;;
8849;SDS011;5638;50.860;4.698;2022-10-31T05:35:19;6.07;;;4.37;;
8849;SDS011;5638;50.860;4.698;2022-10-31T05:37:48;5.20;;;4.03;;
8849;SDS011;5638;50.860;4.698;2022-10-31T05:40:15;10.47;;;4.47;;
8849;SDS011;5638;50.860;4.698;2022-10-31T05:42:44;9.30;;;4.70;;
8849;SDS011;5638;50.860;4.698;2022-10-31T05:45:11;6.90;;;4.53;;
8849;SDS011;5638;50.860;4.698;2022-10-31T05:47:42;7.67;;;4.77;;
8849;SDS011;5638;50.860;4.698;2022-10-31T05:50:18;5.50;;;3.87;;
8849;SDS011;5638;50.860;4.698;2022-10-31T05:52:46;7.67;;;4.47;;
8849;SDS011;5638;50.860;4.698;2022-10-31T05:55:12;10.10;;;4.17;;
8849;SDS011;5638;50.860;4.698;2022-10-31T05:57:38;5.93;;;4.40;;
8849;SDS011;5638;50.860;4.698;2022-10-31T06:00:04;5.90;;;4.63;;
8849;SDS011;5638;50.860;4.698;2022-10-31T06:02:31;7.80;;;4.70;;
8849;SDS011;5638;50.860;4.698;2022-10-31T06:04:59;9.80;;;4.57;;
8849;SDS011;5638;50.860;4.698;2022-10-31T06:07:26;6.50;;;4.27;;
8849;SDS011;5638;50.860;4.698;2022-10-31T06:09:57;9.07;;;4.80;;
8849;SDS011;5638;50.860;4.698;2022-10-31T06:12:23;8.07;;;4.83;;
8849;SDS011;5638;50.860;4.698;2022-10-31T06:14:49;8.47;;;4.73;;
8849;SDS011;5638;50.860;4.698;2022-10-31T06:17:15;9.90;;;5.30;;
8849;SDS011;5638;50.860;4.698;2022-10-31T06:19:40;8.87;;;5.07;;
8849;SDS011;5638;50.860;4.698;2022-10-31T06:22:06;9.93;;;5.50;;
8849;SDS011;5638;50.860;4.698;2022-10-31T06:24:32;7.47;;;5.33;;
8849;SDS011;5638;50.860;4.698;2022-10-31T06:26:58;7.33;;;4.90;;
8849;SDS011;5638;50.860;4.698;2022-10-31T06:29:24;8.03;;;5.13;;
8849;SDS011;5638;50.860;4.698;2022-10-31T06:31:53;9.57;;;6.20;;
8849;SDS011;5638;50.860;4.698;2022-10-31T06:34:19;8.70;;;5.30;;
8849;SDS011;5638;50.860;4.698;2022-10-31T06:36:45;11.63;;;5.13;;
8849;SDS011;5638;50.860;4.698;2022-10-31T06:39:12;12.07;;;5.40;;
8849;SDS011;5638;50.860;4.698;2022-10-31T06:41:38;7.87;;;5.23;;
8849;SDS011;5638;50.860;4.698;2022-10-31T06:44:05;6.50;;;4.70;;
8849;SDS011;5638;50.860;4.698;2022-10-31T06:46:32;7.97;;;5.13;;
8849;SDS011;5638;50.860;4.698;2022-10-31T06:48:58;9.67;;;5.10;;
8849;SDS011;5638;50.860;4.698;2022-10-31T06:51:24;9.47;;;5.93;;
8849;SDS011;5638;50.860;4.698;2022-10-31T06:53:50;10.57;;;5.53;;
8849;SDS011;5638;50.860;4.698;2022-10-31T06:56:16;8.87;;;5.57;;
8849;SDS011;5638;50.860;4.698;2022-10-31T06:58:42;7.50;;;5.00;;
8849;SDS011;5638;50.860;4.698;2022-10-31T07:01:08;8.37;;;4.97;;
8849;SDS011;5638;50.860;4.698;2022-10-31T07:03:33;13.90;;;5.43;;
8849;SDS011;5638;50.860;4.698;2022-10-31T07:05:59;8.87;;;5.73;;
8849;SDS011;5638;50.860;4.698;2022-10-31T07:08:25;13.77;;;6.07;;
8849;SDS011;5638;50.860;4.698;2022-10-31T07:10:52;12.07;;;6.23;;
8849;SDS011;5638;50.860;4.698;2022-10-31T07:13:21;10.83;;;5.97;;
8849;SDS011;5638;50.860;4.698;2022-10-31T07:15:51;7.90;;;5.80;;
8849;SDS011;5638;50.860;4.698;2022-10-31T07:18:20;10.80;;;5.70;;
8849;SDS011;5638;50.860;4.698;2022-10-31T07:20:46;13.03;;;6.40;;
8849;SDS011;5638;50.860;4.698;2022-10-31T07:23:13;15.20;;;6.70;;
8849;SDS011;5638;50.860;4.698;2022-10-31T07:25:39;9.23;;;6.10;;
8849;SDS011;5638;50.860;4.698;2022-10-31T07:28:06;8.27;;;6.13;;
8849;SDS011;5638;50.860;4.698;2022-10-31T07:30:32;12.23;;;7.17;;
8849;SDS011;5638;50.860;4.698;2022-10-31T07:32:58;12.57;;;7.93;;
8849;SDS011;5638;50.860;4.698;2022-10-31T07:35:25;11.77;;;7.03;;
8849;SDS011;5638;50.860;4.698;2022-10-31T07:37:53;10.30;;;6.90;;
8849;SDS011;5638;50.860;4.698;2022-10-31T07:40:20;9.80;;;7.20;;
8849;SDS011;5638;50.860;4.698;2022-10-31T07:42:51;9.17;;;6.83;;
8849;SDS011;5638;50.860;4.698;2022-10-31T07:45:19;12.10;;;6.73;;
8849;SDS011;5638;50.860;4.698;2022-10-31T07:47:50;10.63;;;6.67;;
8849;SDS011;5638;50.860;4.698;2022-10-31T07:50:18;16.00;;;7.63;;
8849;SDS011;5638;50.860;4.698;2022-10-31T07:52:59;11.90;;;7.00;;
8849;SDS011;5638;50.860;4.698;2022-10-31T07:55:28;10.33;;;6.97;;
8849;SDS011;5638;50.860;4.698;2022-10-31T07:58:04;10.87;;;7.03;;
8849;SDS011;5638;50.860;4.698;2022-10-31T08:00:37;12.50;;;6.50;;
8849;SDS011;5638;50.860;4.698;2022-10-31T08:03:07;13.70;;;7.03;;
8849;SDS011;5638;50.860;4.698;2022-10-31T08:05:36;10.03;;;7.23;;
8849;SDS011;5638;50.860;4.698;2022-10-31T08:08:05;10.60;;;7.23;;
8849;SDS011;5638;50.860;4.698;2022-10-31T08:10:32;10.73;;;7.17;;
8849;SDS011;5638;50.860;4.698;2022-10-31T08:13:00;10.87;;;7.53;;
8849;SDS011;5638;50.860;4.698;2022-10-31T08:15:37;9.43;;;6.77;;
8849;SDS011;5638;50.860;4.698;2022-10-31T08:18:06;14.60;;;7.90;;
8849;SDS011;5638;50.860;4.698;2022-10-31T08:20:40;11.63;;;7.40;;
8849;SDS011;5638;50.860;4.698;2022-10-31T08:23:08;10.60;;;7.30;;
8849;SDS011;5638;50.860;4.698;2022-10-31T08:25:36;12.70;;;8.03;;
8849;SDS011;5638;50.860;4.698;2022-10-31T08:28:03;10.97;;;7.60;;
8849;SDS011;5638;50.860;4.698;2022-10-31T08:30:31;13.90;;;7.87;;
8849;SDS011;5638;50.860;4.698;2022-10-31T08:33:11;12.37;;;7.10;;
8849;SDS011;5638;50.860;4.698;2022-10-31T08:35:40;10.47;;;7.27;;
8849;SDS011;5638;50.860;4.698;2022-10-31T08:38:08;12.10;;;7.40;;
8849;SDS011;5638;50.860;4.698;2022-10-31T08:40:36;11.20;;;7.13;;
8849;SDS011;5638;50.860;4.698;2022-10-31T08:43:03;12.63;;;7.53;;
8849;SDS011;5638;50.860;4.698;2022-10-31T08:45:42;13.37;;;7.60;;
8849;SDS011;5638;50.860;4.698;2022-10-31T08:48:10;10.23;;;7.43;;
8849;SDS011;5638;50.860;4.698;2022-10-31T08:50:39;12.53;;;7.47;;
8849;SDS011;5638;50.860;4.698;2022-10-31T08:53:06;10.63;;;7.70;;
8849;SDS011;5638;50.860;4.698;2022-10-31T08:55:44;11.03;;;7.30;;
8849;SDS011;5638;50.860;4.698;2022-10-31T08:58:15;15.07;;;7.67;;
8849;SDS011;5638;50.860;4.698;2022-10-31T09:00:47;14.60;;;8.03;;
8849;SDS011;5638;50.860;4.698;2022-10-31T09:03:17;14.73;;;8.23;;
8849;SDS011;5638;50.860;4.698;2022-10-31T09:05:59;11.70;;;8.43;;
8849;SDS011;5638;50.860;4.698;2022-10-31T09:08:31;16.23;;;8.17;;
8849;SDS011;5638;50.860;4.698;2022-10-31T09:10:58;11.90;;;7.63;;
8849;SDS011;5638;50.860;4.698;2022-10-31T09:13:24;11.93;;;7.90;;
8849;SDS011;5638;50.860;4.698;2022-10-31T09:15:50;12.57;;;7.70;;
8849;SDS011;5638;50.860;4.698;2022-10-31T09:18:18;12.30;;;8.13;;
8849;SDS011;5638;50.860;4.698;2022-10-31T09:20:47;11.90;;;7.50;;
8849;SDS011;5638;50.860;4.698;2022-10-31T09:23:18;12.33;;;7.67;;
8849;SDS011;5638;50.860;4.698;2022-10-31T09:25:47;13.27;;;7.60;;
8849;SDS011;5638;50.860;4.698;2022-10-31T09:28:16;12.03;;;7.53;;
8849;SDS011;5638;50.860;4.698;2022-10-31T09:30:49;13.40;;;7.73;;
8849;SDS011;5638;50.860;4.698;2022-10-31T09:33:17;14.53;;;7.50;;
8849;SDS011;5638;50.860;4.698;2022-10-31T09:35:44;12.40;;;7.93;;
8849;SDS011;5638;50.860;4.698;2022-10-31T09:38:18;14.20;;;7.43;;
8849;SDS011;5638;50.860;4.698;2022-10-31T09:40:46;12.20;;;7.57;;
8849;SDS011;5638;50.860;4.698;2022-10-31T09:43:49;14.27;;;6.83;;
8849;SDS011;5638;50.860;4.698;2022-10-31T09:46:22;11.43;;;7.43;;
8849;SDS011;5638;50.860;4.698;2022-10-31T09:52:01;13.77;;;7.57;;
8849;SDS011;5638;50.860;4.698;2022-10-31T09:54:46;12.93;;;7.83;;
8849;SDS011;5638;50.860;4.698;2022-10-31T09:57:22;13.87;;;8.10;;
8849;SDS011;5638;50.860;4.698;2022-10-31T10:00:00;13.67;;;7.77;;
8849;SDS011;5638;50.860;4.698;2022-10-31T10:05:53;13.00;;;8.60;;
8849;SDS011;5638;50.860;4.698;2022-10-31T10:08:32;13.50;;;8.27;;
8849;SDS011;5638;50.860;4.698;2022-10-31T10:17:12;11.40;;;7.10;;
8849;SDS011;5638;50.860;4.698;2022-10-31T10:25:47;13.17;;;7.70;;
8849;SDS011;5638;50.860;4.698;2022-10-31T10:28:27;13.90;;;7.93;;
8849;SDS011;5638;50.860;4.698;2022-10-31T10:31:07;14.03;;;8.00;;
8849;SDS011;5638;50.860;4.698;2022-10-31T10:36:30;17.73;;;8.33;;
8849;SDS011;5638;50.860;4.698;2022-10-31T10:39:14;15.20;;;8.03;;
8849;SDS011;5638;50.860;4.698;2022-10-31T10:41:48;13.07;;;8.07;;
8849;SDS011;5638;50.860;4.698;2022-10-31T10:44:38;13.93;;;8.93;;
8849;SDS011;5638;50.860;4.698;2022-10-31T10:47:33;17.50;;;9.33;;
8849;SDS011;5638;50.860;4.698;2022-10-31T10:53:02;13.27;;;9.30;;
8849;SDS011;5638;50.860;4.698;2022-10-31T10:58:43;12.50;;;8.43;;
8849;SDS011;5638;50.860;4.698;2022-10-31T11:01:11;13.67;;;8.33;;
8849;SDS011;5638;50.860;4.698;2022-10-31T11:03:39;17.87;;;7.93;;
8849;SDS011;5638;50.860;4.698;2022-10-31T11:06:15;29.37;;;8.27;;
8849;SDS011;5638;50.860;4.698;2022-10-31T11:08:51;15.63;;;7.70;;
8849;SDS011;5638;50.860;4.698;2022-10-31T11:14:00;12.17;;;7.63;;
8849;SDS011;5638;50.860;4.698;2022-10-31T11:16:39;13.60;;;6.83;;
8849;SDS011;5638;50.860;4.698;2022-10-31T11:21:47;12.17;;;7.50;;
8849;SDS011;5638;50.860;4.698;2022-10-31T11:24:21;13.77;;;7.10;;
8849;SDS011;5638;50.860;4.698;2022-10-31T11:26:51;15.07;;;6.83;;
8849;SDS011;5638;50.860;4.698;2022-10-31T11:29:34;14.87;;;7.23;;
8849;SDS011;5638;50.860;4.698;2022-10-31T11:32:01;17.00;;;7.63;;
8849;SDS011;5638;50.860;4.698;2022-10-31T11:39:40;12.73;;;7.00;;
8849;SDS011;5638;50.860;4.698;2022-10-31T11:42:09;8.13;;;6.17;;
8849;SDS011;5638;50.860;4.698;2022-10-31T11:44:36;10.43;;;5.97;;
8849;SDS011;5638;50.860;4.698;2022-10-31T11:47:15;9.60;;;5.63;;
8849;SDS011;5638;50.860;4.698;2022-10-31T11:49:46;10.70;;;5.90;;
8849;SDS011;5638;50.860;4.698;2022-10-31T11:52:22;12.37;;;6.43;;
8849;SDS011;5638;50.860;4.698;2022-10-31T11:55:35;10.73;;;5.70;;
8849;SDS011;5638;50.860;4.698;2022-10-31T11:57:56;9.93;;;6.13;;
8849;SDS011;5638;50.860;4.698;2022-10-31T12:00:27;9.83;;;6.07;;
8849;SDS011;5638;50.860;4.698;2022-10-31T12:03:11;12.33;;;6.50;;
8849;SDS011;5638;50.860;4.698;2022-10-31T12:06:00;10.17;;;5.37;;
8849;SDS011;5638;50.860;4.698;2022-10-31T12:08:38;11.50;;;5.67;;
8849;SDS011;5638;50.860;4.698;2022-10-31T12:17:14;8.37;;;5.47;;
8849;SDS011;5638;50.860;4.698;2022-10-31T12:22:42;11.03;;;4.77;;
8849;SDS011;5638;50.860;4.698;2022-10-31T12:31:16;9.87;;;5.60;;
8849;SDS011;5638;50.860;4.698;2022-10-31T12:36:51;9.23;;;5.70;;
8849;SDS011;5638;50.860;4.698;2022-10-31T12:51:40;8.20;;;4.30;;
8849;SDS011;5638;50.860;4.698;2022-10-31T13:00:10;11.77;;;3.83;;
8849;SDS011;5638;50.860;4.698;2022-10-31T13:02:56;9.90;;;4.17;;
8849;SDS011;5638;50.860;4.698;2022-10-31T13:05:40;7.93;;;4.07;;
8849;SDS011;5638;50.860;4.698;2022-10-31T13:08:12;10.47;;;4.03;;
8849;SDS011;5638;50.860;4.698;2022-10-31T13:10:45;8.23;;;4.07;;
8849;SDS011;5638;50.860;4.698;2022-10-31T13:13:25;10.07;;;4.27;;
8849;SDS011;5638;50.860;4.698;2022-10-31T13:16:02;7.27;;;3.53;;
8849;SDS011;5638;50.860;4.698;2022-10-31T13:18:44;7.57;;;4.17;;
8849;SDS011;5638;50.860;4.698;2022-10-31T13:27:29;8.30;;;4.00;;
8849;SDS011;5638;50.860;4.698;2022-10-31T13:30:18;6.83;;;4.40;;
8849;SDS011;5638;50.860;4.698;2022-10-31T13:33:14;10.53;;;4.37;;
8849;SDS011;5638;50.860;4.698;2022-10-31T13:35:51;9.10;;;4.77;;
8849;SDS011;5638;50.860;4.698;2022-10-31T13:38:49;10.53;;;4.50;;
8849;SDS011;5638;50.860;4.698;2022-10-31T13:46:55;8.73;;;4.80;;
8849;SDS011;5638;50.860;4.698;2022-10-31T13:49:24;12.23;;;4.43;;
8849;SDS011;5638;50.860;4.698;2022-10-31T13:54:35;9.17;;;4.47;;
8849;SDS011;5638;50.860;4.698;2022-10-31T13:59:53;12.70;;;4.90;;
8849;SDS011;5638;50.860;4.698;2022-10-31T14:02:27;8.80;;;4.23;;
8849;SDS011;5638;50.860;4.698;2022-10-31T14:04:59;8.50;;;4.63;;
8849;SDS011;5638;50.860;4.698;2022-10-31T14:07:42;7.63;;;4.57;;
8849;SDS011;5638;50.860;4.698;2022-10-31T14:10:30;9.83;;;5.13;;
8849;SDS011;5638;50.860;4.698;2022-10-31T14:13:08;10.10;;;5.30;;
8849;SDS011;5638;50.860;4.698;2022-10-31T14:15:54;12.30;;;5.60;;
8849;SDS011;5638;50.860;4.698;2022-10-31T14:20:58;12.20;;;5.33;;
8849;SDS011;5638;50.860;4.698;2022-10-31T14:26:33;9.77;;;4.43;;
8849;SDS011;5638;50.860;4.698;2022-10-31T14:28:52;9.67;;;4.60;;
8849;SDS011;5638;50.860;4.698;2022-10-31T14:31:39;10.53;;;5.57;;
8849;SDS011;5638;50.860;4.698;2022-10-31T14:34:23;10.63;;;5.30;;
8849;SDS011;5638;50.860;4.698;2022-10-31T14:39:42;9.87;;;5.03;;
8849;SDS011;5638;50.860;4.698;2022-10-31T14:45:54;12.33;;;5.20;;
8849;SDS011;5638;50.860;4.698;2022-10-31T14:49:02;11.00;;;5.93;;
8849;SDS011;5638;50.860;4.698;2022-10-31T14:51:38;12.13;;;5.77;;
8849;SDS011;5638;50.860;4.698;2022-10-31T14:54:11;10.13;;;6.13;;
8849;SDS011;5638;50.860;4.698;2022-10-31T14:57:14;13.83;;;5.97;;
8849;SDS011;5638;50.860;4.698;2022-10-31T14:59:55;9.47;;;5.53;;
8849;SDS011;5638;50.860;4.698;2022-10-31T15:02:39;9.50;;;5.70;;
8849;SDS011;5638;50.860;4.698;2022-10-31T15:05:26;14.80;;;7.00;;
8849;SDS011;5638;50.860;4.698;2022-10-31T15:07:54;8.03;;;6.00;;
8849;SDS011;5638;50.860;4.698;2022-10-31T15:10:27;18.13;;;6.83;;
8849;SDS011;5638;50.860;4.698;2022-10-31T15:13:17;12.60;;;6.83;;
8849;SDS011;5638;50.860;4.698;2022-10-31T15:15:46;13.77;;;6.60;;
8849;SDS011;5638;50.860;4.698;2022-10-31T15:18:20;14.50;;;6.23;;
8849;SDS011;5638;50.860;4.698;2022-10-31T15:20:54;12.10;;;6.00;;
8849;SDS011;5638;50.860;4.698;2022-10-31T15:23:25;13.47;;;6.60;;
8849;SDS011;5638;50.860;4.698;2022-10-31T15:26:00;10.80;;;7.27;;
8849;SDS011;5638;50.860;4.698;2022-10-31T15:28:29;16.13;;;6.37;;
8849;SDS011;5638;50.860;4.698;2022-10-31T15:31:00;16.40;;;7.50;;
8849;SDS011;5638;50.860;4.698;2022-10-31T15:33:30;16.13;;;6.90;;
8849;SDS011;5638;50.860;4.698;2022-10-31T15:36:05;16.00;;;7.03;;
8849;SDS011;5638;50.860;4.698;2022-10-31T15:38:31;12.70;;;6.50;;
8849;SDS011;5638;50.860;4.698;2022-10-31T15:41:05;11.80;;;6.40;;
8849;SDS011;5638;50.860;4.698;2022-10-31T15:43:52;11.53;;;6.60;;
8849;SDS011;5638;50.860;4.698;2022-10-31T15:46:20;13.27;;;6.23;;
8849;SDS011;5638;50.860;4.698;2022-10-31T15:48:47;13.67;;;6.50;;
8849;SDS011;5638;50.860;4.698;2022-10-31T15:51:13;11.63;;;6.33;;
8849;SDS011;5638;50.860;4.698;2022-10-31T15:53:47;12.97;;;6.90;;
8849;SDS011;5638;50.860;4.698;2022-10-31T15:56:24;16.07;;;6.77;;
8849;SDS011;5638;50.860;4.698;2022-10-31T15:58:56;20.00;;;6.70;;
8849;SDS011;5638;50.860;4.698;2022-10-31T16:01:26;10.87;;;6.97;;
8849;SDS011;5638;50.860;4.698;2022-10-31T16:06:35;10.77;;;6.33;;
8849;SDS011;5638;50.860;4.698;2022-10-31T16:09:01;13.97;;;7.30;;
8849;SDS011;5638;50.860;4.698;2022-10-31T16:11:45;22.57;;;6.90;;
8849;SDS011;5638;50.860;4.698;2022-10-31T16:16:47;11.90;;;6.57;;
8849;SDS011;5638;50.860;4.698;2022-10-31T16:19:20;13.50;;;6.13;;
8849;SDS011;5638;50.860;4.698;2022-10-31T16:22:25;17.10;;;6.57;;
8849;SDS011;5638;50.860;4.698;2022-10-31T16:27:28;9.43;;;5.63;;
8849;SDS011;5638;50.860;4.698;2022-10-31T16:29:59;12.87;;;5.37;;
8849;SDS011;5638;50.860;4.698;2022-10-31T16:32:33;10.50;;;5.70;;
8849;SDS011;5638;50.860;4.698;2022-10-31T16:35:24;10.67;;;5.20;;
8849;SDS011;5638;50.860;4.698;2022-10-31T16:38:04;7.37;;;4.30;;
8849;SDS011;5638;50.860;4.698;2022-10-31T16:40:30;8.67;;;4.83;;
8849;SDS011;5638;50.860;4.698;2022-10-31T16:42:58;8.03;;;3.93;;
8849;SDS011;5638;50.860;4.698;2022-10-31T16:45:26;7.73;;;4.47;;
8849;SDS011;5638;50.860;4.698;2022-10-31T16:48:05;7.97;;;3.83;;
8849;SDS011;5638;50.860;4.698;2022-10-31T16:50:36;7.73;;;3.97;;
8849;SDS011;5638;50.860;4.698;2022-10-31T16:53:03;9.63;;;3.90;;
8849;SDS011;5638;50.860;4.698;2022-10-31T16:55:29;8.10;;;4.10;;
8849;SDS011;5638;50.860;4.698;2022-10-31T16:57:56;8.63;;;3.30;;
8849;SDS011;5638;50.860;4.698;2022-10-31T17:00:24;8.77;;;3.97;;
8849;SDS011;5638;50.860;4.698;2022-10-31T17:02:52;8.23;;;3.77;;
8849;SDS011;5638;50.860;4.698;2022-10-31T17:05:24;7.60;;;3.63;;
8849;SDS011;5638;50.860;4.698;2022-10-31T17:07:57;12.13;;;4.13;;
8849;SDS011;5638;50.860;4.698;2022-10-31T17:10:24;8.17;;;4.50;;
8849;SDS011;5638;50.860;4.698;2022-10-31T17:12:51;6.73;;;3.97;;
8849;SDS011;5638;50.860;4.698;2022-10-31T17:15:20;6.43;;;3.67;;
8849;SDS011;5638;50.860;4.698;2022-10-31T17:17:52;9.50;;;3.70;;
8849;SDS011;5638;50.860;4.698;2022-10-31T17:20:29;10.30;;;3.70;;
8849;SDS011;5638;50.860;4.698;2022-10-31T17:22:56;5.70;;;3.43;;
8849;SDS011;5638;50.860;4.698;2022-10-31T17:25:25;8.93;;;3.83;;
8849;SDS011;5638;50.860;4.698;2022-10-31T17:27:54;9.37;;;4.50;;
8849;SDS011;5638;50.860;4.698;2022-10-31T17:30:20;11.63;;;4.13;;
8849;SDS011;5638;50.860;4.698;2022-10-31T17:32:47;8.47;;;4.20;;
8849;SDS011;5638;50.860;4.698;2022-10-31T17:35:14;9.33;;;4.10;;
8849;SDS011;5638;50.860;4.698;2022-10-31T17:37:41;8.27;;;4.67;;
8849;SDS011;5638;50.860;4.698;2022-10-31T17:40:09;6.97;;;4.43;;
8849;SDS011;5638;50.860;4.698;2022-10-31T17:42:37;8.47;;;4.90;;
8849;SDS011;5638;50.860;4.698;2022-10-31T17:45:04;9.20;;;3.77;;
8849;SDS011;5638;50.860;4.698;2022-10-31T17:47:32;10.90;;;4.43;;
8849;SDS011;5638;50.860;4.698;2022-10-31T17:49:59;7.77;;;3.73;;
8849;SDS011;5638;50.860;4.698;2022-10-31T17:52:25;6.57;;;3.60;;
8849;SDS011;5638;50.860;4.698;2022-10-31T17:54:51;6.50;;;3.60;;
8849;SDS011;5638;50.860;4.698;2022-10-31T17:57:17;6.73;;;3.80;;
8849;SDS011;5638;50.860;4.698;2022-10-31T17:59:43;8.47;;;4.30;;
8849;SDS011;5638;50.860;4.698;2022-10-31T18:02:09;7.60;;;3.97;;